Time;durP1;ratioP1;P1;durP2;ratioP2;P2;SDS_P1;SDS_P2;PMS_P1;PMS_P2;Temp;Humidity;BMP_temperature;BMP_pressure;BME280_temperature;BME280_humidity;BME280_pressure;Samples;Min_cycle;Max_cycle;Signal;HPM_P1;HPM_P2
2022/11/11 00:02:00;;;;;;;;;;;15.00;99.90;;;;;;5027292;28;19948;-62
2022/11/11 00:04:26;;;;;;;;;;;15.00;99.90;;;;;;5027531;28;19920;-62
2022/11/11 00:06:52;;;;;;;;;;;14.90;99.90;;;;;;5021603;28;19914;-62
2022/11/11 00:09:18;;;;;;;;;;;14.90;99.90;;;;;;5025748;28;19920;-62
2022/11/11 00:11:44;;;;;;;;;;;15.00;99.90;;;;;;5022441;28;20011;-62
2022/11/11 00:14:09;;;;;;;;;;;14.90;99.90;;;;;;5025493;28;19995;-61
2022/11/11 00:25:06;;;;;;;;;;;15.00;99.90;;;;;;5026703;28;20004;-62
2022/11/11 00:27:32;;;;;;;;;;;15.00;99.90;;;;;;5022577;28;19921;-61
2022/11/11 00:29:58;;;;;;;;;;;15.00;99.90;;;;;;5022828;28;19914;-61
2022/11/11 00:32:25;;;;;;;;;;;15.00;99.90;;;;;;5023815;28;19972;-62
2022/11/11 00:37:37;;;;;;;;;;;15.00;99.90;;;;;;5023485;28;20018;-63
2022/11/11 00:40:03;;;;;;;;;;;15.00;99.90;;;;;;5024929;28;19917;-61
2022/11/11 00:42:28;;;;;;;;;;;15.00;99.90;;;;;;5025273;28;19959;-62
2022/11/11 00:44:54;;;;;;;;;;;15.00;99.90;;;;;;5022385;28;19914;-62
2022/11/11 00:52:49;;;;;;;;;;;14.90;99.90;;;;;;5013855;28;20020;-61
2022/11/11 00:55:15;;;;;;;;;;;14.90;99.90;;;;;;5027552;28;20408;-61
2022/11/11 00:57:40;;;;;;;;;;;14.90;99.90;;;;;;5028627;28;19921;-62
2022/11/11 01:00:06;;;;;;;;;;;14.90;99.90;;;;;;5027088;28;19980;-62
2022/11/11 01:02:32;;;;;;;;;;;14.90;99.90;;;;;;5028747;28;19914;-62
2022/11/11 01:04:57;;;;;;;;;;;14.90;99.90;;;;;;5022351;28;20951;-62
2022/11/11 01:07:23;;;;;;;;;;;14.90;99.90;;;;;;5030147;28;20380;-61
2022/11/11 01:09:49;;;;;;;;;;;14.90;99.90;;;;;;5027544;28;19913;-62
2022/11/11 01:12:15;;;;;;;;;;;14.90;99.90;;;;;;5029928;28;20356;-62
2022/11/11 01:14:40;;;;;;;;;;;14.90;99.90;;;;;;5029781;28;19961;-62
2022/11/11 01:17:08;;;;;;;;;;;14.90;99.90;;;;;;5029546;28;19928;-62
2022/11/11 01:19:34;;;;;;;;;;;14.90;99.90;;;;;;5030238;28;19913;-62
2022/11/11 01:22:00;;;;;;;;;;;14.90;99.90;;;;;;5024039;28;19913;-62
2022/11/11 01:24:25;;;;;;;;;;;14.90;99.90;;;;;;5029667;28;19917;-61
2022/11/11 01:26:51;;;;;;;;;;;15.00;99.90;;;;;;5026183;28;19920;-62
2022/11/11 01:29:16;;;;;;;;;;;15.00;99.90;;;;;;5030820;28;19924;-62
2022/11/11 01:31:42;;;;;;;;;;;14.90;99.90;;;;;;5028879;28;20281;-62
2022/11/11 01:34:07;;;;;;;;;;;14.90;99.90;;;;;;5024364;28;19917;-61
2022/11/11 01:36:33;;;;;;;;;;;15.00;99.90;;;;;;5030412;28;19920;-61
2022/11/11 01:38:59;;;;;;;;;;;15.00;99.90;;;;;;5029149;28;19921;-61
2022/11/11 01:41:32;;;;;;;;;;;15.00;99.90;;;;;;5027134;28;19923;-65
2022/11/11 01:44:10;;;;;;;;;;;15.00;99.90;;;;;;5028895;28;19913;-61
2022/11/11 01:46:54;;;;;;;;;;;15.00;99.90;;;;;;5026966;28;19928;-62
2022/11/11 01:49:23;;;;;;;;;;;14.90;99.90;;;;;;5028333;28;19963;-61
2022/11/11 01:51:52;;;;;;;;;;;14.90;99.90;;;;;;5028867;28;19913;-62
2022/11/11 01:54:20;;;;;;;;;;;14.80;99.90;;;;;;5029926;28;19913;-61
2022/11/11 01:56:48;;;;;;;;;;;14.80;99.90;;;;;;5024289;28;20416;-62
2022/11/11 01:59:16;;;;;;;;;;;14.70;99.90;;;;;;5030552;28;20048;-61
2022/11/11 02:01:41;;;;;;;;;;;14.70;99.90;;;;;;5027641;28;19913;-61
2022/11/11 02:06:57;;;;;;;;;;;14.70;99.90;;;;;;5027907;28;20075;-62
2022/11/11 02:09:23;;;;;;;;;;;14.70;99.90;;;;;;5028383;28;19983;-62
2022/11/11 02:14:38;;;;;;;;;;;14.60;99.90;;;;;;5030680;28;19963;-62
2022/11/11 02:17:07;;;;;;;;;;;14.60;99.90;;;;;;5022721;28;19924;-62
2022/11/11 02:19:43;;;;;;;;;;;14.60;99.90;;;;;;5028527;28;19925;-62
2022/11/11 02:22:11;;;;;;;;;;;14.60;99.90;;;;;;5021193;28;19913;-62
2022/11/11 02:24:37;;;;;;;;;;;14.60;99.90;;;;;;5028424;28;19924;-62
2022/11/11 02:27:04;;;;;;;;;;;14.60;99.90;;;;;;5018282;28;19913;-62
2022/11/11 02:29:30;;;;;;;;;;;14.60;99.90;;;;;;5016225;28;19913;-61
2022/11/11 02:31:55;;;;;;;;;;;14.60;99.90;;;;;;5025865;28;20851;-61
2022/11/11 02:34:27;;;;;;;;;;;14.60;99.90;;;;;;5025715;28;20062;-62
2022/11/11 02:36:53;;;;;;;;;;;14.50;99.90;;;;;;5028096;28;19921;-62
2022/11/11 02:39:18;;;;;;;;;;;14.50;99.90;;;;;;5028473;28;20055;-64
2022/11/11 02:41:58;;;;;;;;;;;14.40;99.90;;;;;;5027195;28;19913;-62
2022/11/11 02:44:24;;;;;;;;;;;14.40;99.90;;;;;;5025055;28;20387;-62
2022/11/11 02:46:50;;;;;;;;;;;14.40;99.90;;;;;;5028071;28;19921;-62
2022/11/11 02:49:16;;;;;;;;;;;14.30;99.90;;;;;;5029954;28;20050;-61
2022/11/11 02:51:41;;;;;;;;;;;14.30;99.90;;;;;;5028016;28;20280;-61
2022/11/11 02:54:07;;;;;;;;;;;14.30;99.90;;;;;;5028958;28;19913;-61
2022/11/11 02:59:17;;;;;;;;;;;14.30;99.90;;;;;;5029494;28;19928;-62
2022/11/11 03:01:42;;;;;;;;;;;14.30;99.90;;;;;;5026042;28;19913;-62
2022/11/11 03:04:08;;;;;;;;;;;14.30;99.90;;;;;;5029498;28;20371;-61
2022/11/11 03:06:33;;;;;;;;;;;14.30;99.90;;;;;;5025918;28;20013;-61
2022/11/11 03:08:59;;;;;;;;;;;14.30;99.90;;;;;;5029875;28;19967;-61
2022/11/11 03:11:27;;;;;;;;;;;14.40;99.90;;;;;;5030322;28;19967;-62
2022/11/11 03:13:53;;;;;;;;;;;14.30;99.90;;;;;;5031384;28;19952;-62
2022/11/11 03:19:03;;;;;;;;;;;14.40;99.90;;;;;;5028956;28;19928;-62
2022/11/11 03:21:29;;;;;;;;;;;14.40;99.90;;;;;;5033253;28;19913;-63
2022/11/11 03:23:54;;;;;;;;;;;14.40;99.90;;;;;;5024490;28;19918;-61
2022/11/11 03:26:20;;;;;;;;;;;14.40;99.90;;;;;;5028144;28;19919;-61
2022/11/11 03:28:45;;;;;;;;;;;14.40;99.90;;;;;;5023730;28;20107;-61
2022/11/11 03:31:11;;;;;;;;;;;14.40;99.90;;;;;;5025276;28;19960;-61
2022/11/11 03:33:37;;;;;;;;;;;14.30;99.90;;;;;;5026074;28;19917;-61
2022/11/11 03:36:02;;;;;;;;;;;14.30;99.90;;;;;;5025109;28;19964;-61
2022/11/11 03:38:28;;;;;;;;;;;14.40;99.90;;;;;;5028664;28;20337;-61
2022/11/11 03:40:55;;;;;;;;;;;14.30;99.90;;;;;;5017772;28;19917;-62
2022/11/11 03:43:22;;;;;;;;;;;14.30;99.90;;;;;;5025828;28;19913;-61
2022/11/11 03:45:48;;;;;;;;;;;14.30;99.90;;;;;;5031169;28;19917;-62
2022/11/11 03:48:14;;;;;;;;;;;14.30;99.90;;;;;;5024031;28;19914;-61
2022/11/11 03:50:40;;;;;;;;;;;14.30;99.90;;;;;;5025771;28;20043;-62
2022/11/11 03:53:06;;;;;;;;;;;14.30;99.90;;;;;;5023722;28;20380;-62
2022/11/11 03:55:31;;;;;;;;;;;14.30;99.90;;;;;;5031045;28;19920;-62
2022/11/11 03:57:57;;;;;;;;;;;14.30;99.90;;;;;;5025512;28;19929;-62
2022/11/11 04:00:24;;;;;;;;;;;14.30;99.90;;;;;;5030700;28;19931;-62
2022/11/11 04:11:13;;;;;;;;;;;14.20;99.90;;;;;;5032483;28;19975;-62
2022/11/11 04:16:25;;;;;;;;;;;14.20;99.90;;;;;;5019070;28;19920;-61
2022/11/11 04:21:45;;;;;;;;;;;14.20;99.90;;;;;;5028605;28;19971;-61
2022/11/11 04:26:56;;;;;;;;;;;14.10;99.90;;;;;;5024928;28;19993;-62
2022/11/11 04:29:28;;;;;;;;;;;14.20;99.90;;;;;;5029998;28;20383;-62
2022/11/11 04:34:50;;;;;;;;;;;14.10;99.90;;;;;;5027638;28;20330;-62
2022/11/11 04:37:16;;;;;;;;;;;14.10;99.90;;;;;;5031419;28;20368;-62
2022/11/11 04:42:27;;;;;;;;;;;14.00;99.90;;;;;;5041428;22;20419;-64
2022/11/11 04:47:37;;;;;;;;;;;14.00;99.90;;;;;;5030374;28;20384;-65
2022/11/11 04:50:03;;;;;;;;;;;14.00;99.90;;;;;;5030258;28;19913;-66
2022/11/11 04:52:28;;;;;;;;;;;14.00;99.90;;;;;;5031920;28;19913;-67
2022/11/11 04:57:40;;;;;;;;;;;13.90;99.90;;;;;;5029418;28;19944;-63
2022/11/11 05:00:06;;;;;;;;;;;13.90;99.90;;;;;;5031603;28;19913;-63
2022/11/11 05:05:16;;;;;;;;;;;13.90;99.90;;;;;;5030669;28;19966;-64
2022/11/11 05:10:25;;;;;;;;;;;13.90;99.90;;;;;;5031622;28;19920;-64
2022/11/11 05:12:51;;;;;;;;;;;13.90;99.90;;;;;;5029304;28;19917;-65
2022/11/11 05:21:20;;;;;;;;;;;14.00;99.90;;;;;;4955629;28;20062;-65
2022/11/11 05:26:30;;;;;;;;;;;14.00;99.90;;;;;;4957577;28;20326;-64
2022/11/11 05:28:56;;;;;;;;;;;14.00;99.90;;;;;;4950053;28;20375;-64
2022/11/11 05:31:21;;;;;;;;;;;14.00;99.90;;;;;;4956603;28;19941;-64
2022/11/11 05:33:47;;;;;;;;;;;14.00;99.90;;;;;;4951477;28;19915;-64
2022/11/11 05:36:12;;;;;;;;;;;14.00;99.90;;;;;;4957977;28;19914;-64
2022/11/11 05:38:38;;;;;;;;;;;14.00;99.90;;;;;;4956554;28;19922;-64
2022/11/11 05:41:04;;;;;;;;;;;14.00;99.90;;;;;;4954146;28;19937;-64
2022/11/11 05:43:29;;;;;;;;;;;14.00;99.90;;;;;;4957333;28;19929;-64
2022/11/11 05:45:55;;;;;;;;;;;14.00;99.90;;;;;;4953082;28;19921;-64
2022/11/11 05:48:20;;;;;;;;;;;14.00;99.90;;;;;;4954010;28;19930;-64
2022/11/11 05:50:46;;;;;;;;;;;14.00;99.90;;;;;;4952531;28;20291;-64
2022/11/11 05:53:11;;;;;;;;;;;14.00;99.90;;;;;;4955358;28;19965;-64
2022/11/11 05:55:37;;;;;;;;;;;14.00;99.90;;;;;;5005797;28;19913;-64
2022/11/11 05:58:03;;;;;;;;;;;14.00;99.90;;;;;;5030098;28;20353;-64
2022/11/11 06:00:28;;;;;;;;;;;14.10;99.90;;;;;;5030304;28;20027;-64
2022/11/11 06:02:54;;;;;;;;;;;14.10;99.90;;;;;;5016598;28;20294;-64
2022/11/11 06:05:19;;;;;;;;;;;14.00;99.90;;;;;;5026298;28;19914;-64
2022/11/11 06:07:45;;;;;;;;;;;14.00;99.90;;;;;;5027009;28;19913;-64
2022/11/11 06:13:04;;;;;;;;;;;14.00;99.90;;;;;;5027259;28;19919;-64
2022/11/11 06:15:31;;;;;;;;;;;14.00;99.90;;;;;;5031688;28;19927;-65
2022/11/11 06:17:56;;;;;;;;;;;14.00;99.90;;;;;;5024209;28;20004;-64
2022/11/11 06:20:22;;;;;;;;;;;13.90;99.90;;;;;;5026845;28;20360;-65
2022/11/11 06:22:56;;;;;;;;;;;13.90;99.90;;;;;;5024058;28;19920;-64
2022/11/11 06:28:16;;;;;;;;;;;13.90;99.90;;;;;;5028287;28;19967;-63
2022/11/11 06:30:41;;;;;;;;;;;13.80;99.90;;;;;;5024888;28;19917;-64
2022/11/11 06:33:08;;;;;;;;;;;13.90;99.90;;;;;;5025970;28;19920;-65
2022/11/11 06:35:37;;;;;;;;;;;13.80;99.90;;;;;;5025811;28;20277;-63
2022/11/11 06:38:03;;;;;;;;;;;13.80;99.90;;;;;;5017460;28;19956;-64
2022/11/11 06:40:29;;;;;;;;;;;13.80;99.90;;;;;;5029467;28;19914;-64
2022/11/11 06:42:56;;;;;;;;;;;13.80;99.90;;;;;;5026864;28;19971;-64
2022/11/11 06:45:22;;;;;;;;;;;13.80;99.90;;;;;;5025056;28;19917;-64
2022/11/11 06:47:48;;;;;;;;;;;13.80;99.90;;;;;;5026740;28;19959;-63
2022/11/11 06:50:15;;;;;;;;;;;13.80;99.90;;;;;;5028476;28;20295;-64
2022/11/11 06:52:41;;;;;;;;;;;13.80;99.90;;;;;;5026432;28;19924;-64
2022/11/11 06:55:06;;;;;;;;;;;13.80;99.90;;;;;;5029319;28;20388;-64
2022/11/11 06:57:32;;;;;;;;;;;13.80;99.90;;;;;;5027440;28;20364;-64
2022/11/11 06:59:58;;;;;;;;;;;13.90;99.90;;;;;;5026849;28;19921;-64
2022/11/11 07:02:23;;;;;;;;;;;13.80;99.90;;;;;;5027926;28;20438;-64
2022/11/11 07:04:49;;;;;;;;;;;13.90;99.90;;;;;;5027424;28;19913;-64
2022/11/11 07:07:16;;;;;;;;;;;13.90;99.90;;;;;;5029402;28;19913;-64
2022/11/11 07:09:42;;;;;;;;;;;13.90;99.90;;;;;;5025910;28;20009;-62
2022/11/11 07:12:07;;;;;;;;;;;13.90;99.90;;;;;;5028881;28;19967;-64
2022/11/11 07:14:33;;;;;;;;;;;13.90;99.90;;;;;;5028995;28;19967;-64
2022/11/11 07:16:59;;;;;;;;;;;13.90;99.90;;;;;;5025547;28;20023;-64
2022/11/11 07:19:24;;;;;;;;;;;14.00;99.90;;;;;;5029305;28;20007;-63
2022/11/11 07:21:50;;;;;;;;;;;14.00;99.90;;;;;;5027358;28;19914;-64
2022/11/11 07:24:15;;;;;;;;;;;14.00;99.90;;;;;;5029214;28;20006;-64
2022/11/11 07:26:41;;;;;;;;;;;14.00;99.90;;;;;;5026165;28;19917;-63
2022/11/11 07:29:07;;;;;;;;;;;14.10;99.90;;;;;;5023406;28;19913;-65
2022/11/11 07:31:33;;;;;;;;;;;14.10;99.90;;;;;;5019791;28;19967;-64
2022/11/11 07:33:58;;;;;;;;;;;14.10;99.90;;;;;;5022735;28;19917;-65
2022/11/11 07:36:24;;;;;;;;;;;14.00;99.90;;;;;;5028249;28;19924;-64
2022/11/11 07:38:49;;;;;;;;;;;14.00;99.90;;;;;;5027110;28;20000;-64
2022/11/11 07:41:15;;;;;;;;;;;14.00;99.90;;;;;;5025999;28;19917;-64
2022/11/11 07:43:40;;;;;;;;;;;13.90;99.90;;;;;;5026682;28;19925;-65
2022/11/11 07:46:06;;;;;;;;;;;13.90;99.90;;;;;;5027937;28;19922;-64
2022/11/11 07:48:32;;;;;;;;;;;13.90;99.90;;;;;;5028331;28;19921;-64
2022/11/11 07:50:57;;;;;;;;;;;13.90;99.90;;;;;;5025337;28;19917;-64
2022/11/11 07:53:25;;;;;;;;;;;13.90;99.90;;;;;;5030568;28;19913;-66
2022/11/11 07:55:50;;;;;;;;;;;13.90;99.90;;;;;;5027718;28;20005;-65
2022/11/11 07:58:16;;;;;;;;;;;13.90;99.90;;;;;;5031446;28;20000;-65
2022/11/11 08:00:41;;;;;;;;;;;13.90;99.90;;;;;;5029209;28;19917;-65
2022/11/11 08:03:07;;;;;;;;;;;13.90;99.90;;;;;;5030250;28;19928;-65
2022/11/11 08:05:33;;;;;;;;;;;14.00;99.90;;;;;;5027065;28;19975;-64
2022/11/11 08:08:03;;;;;;;;;;;14.00;99.90;;;;;;5028923;28;20273;-65
2022/11/11 08:10:28;;;;;;;;;;;14.00;99.90;;;;;;5031194;28;20277;-65
2022/11/11 08:15:38;;;;;;;;;;;14.10;99.90;;;;;;5029062;28;19963;-62
2022/11/11 08:18:04;;;;;;;;;;;14.10;99.90;;;;;;5030460;28;20000;-66
2022/11/11 08:20:29;;;;;;;;;;;14.10;99.90;;;;;;5026941;28;19921;-65
2022/11/11 08:22:56;;;;;;;;;;;14.10;99.90;;;;;;5027843;28;19917;-66
2022/11/11 08:25:22;;;;;;;;;;;14.10;99.90;;;;;;5032141;28;19917;-65
2022/11/11 08:27:48;;;;;;;;;;;14.10;99.90;;;;;;5029553;28;20245;-64
2022/11/11 08:30:14;;;;;;;;;;;14.10;99.90;;;;;;5030858;28;19917;-65
2022/11/11 08:32:39;;;;;;;;;;;14.00;99.90;;;;;;5028334;28;19917;-64
2022/11/11 08:35:05;;;;;;;;;;;14.00;99.90;;;;;;5030103;28;19920;-64
2022/11/11 08:37:31;;;;;;;;;;;14.10;99.90;;;;;;5029596;28;19921;-66
2022/11/11 08:39:56;;;;;;;;;;;14.10;99.90;;;;;;5026611;28;20380;-65
2022/11/11 08:42:22;;;;;;;;;;;14.00;99.90;;;;;;5030910;28;20011;-63
2022/11/11 08:44:47;;;;;;;;;;;14.00;99.90;;;;;;5028579;28;19983;-64
2022/11/11 08:47:13;;;;;;;;;;;14.00;99.90;;;;;;5031096;28;19999;-64
2022/11/11 08:49:39;;;;;;;;;;;14.10;99.90;;;;;;5029003;28;19917;-65
2022/11/11 08:52:04;;;;;;;;;;;14.20;99.90;;;;;;5030215;28;19959;-66
2022/11/11 08:54:30;;;;;;;;;;;14.20;99.90;;;;;;5030270;28;19920;-64
2022/11/11 08:56:55;;;;;;;;;;;14.30;99.90;;;;;;5026690;28;20365;-64
2022/11/11 08:59:21;;;;;;;;;;;14.30;99.90;;;;;;5030716;28;19940;-64
2022/11/11 09:01:46;;;;;;;;;;;14.40;99.90;;;;;;5027604;28;19913;-64
2022/11/11 09:04:12;;;;;;;;;;;14.40;99.90;;;;;;5030054;28;19913;-65
2022/11/11 09:06:40;;;;;;;;;;;14.50;99.90;;;;;;5028487;28;19913;-65
2022/11/11 09:09:05;;;;;;;;;;;14.50;99.90;;;;;;5030869;28;19913;-64
2022/11/11 09:11:35;;;;;;;;;;;14.50;99.90;;;;;;5027682;28;19929;-65
2022/11/11 09:14:01;;;;;;;;;;;14.50;99.90;;;;;;5026469;28;20318;-64
2022/11/11 09:16:26;;;;;;;;;;;14.50;99.90;;;;;;5029817;28;20110;-65
2022/11/11 09:18:52;;;;;;;;;;;14.50;99.90;;;;;;5028717;28;19925;-64
2022/11/11 09:21:17;;;;;;;;;;;14.50;99.90;;;;;;5029694;28;20362;-65
2022/11/11 09:23:43;;;;;;;;;;;14.50;99.90;;;;;;5025764;28;20269;-64
2022/11/11 09:26:08;;;;;;;;;;;14.40;99.90;;;;;;5027090;28;21054;-64
2022/11/11 09:28:35;;;;;;;;;;;14.40;99.90;;;;;;5021240;28;19920;-65
2022/11/11 09:31:01;;;;;;;;;;;14.40;99.90;;;;;;5020995;28;19921;-66
2022/11/11 09:33:26;;;;;;;;;;;14.40;99.90;;;;;;5021961;28;19917;-64
2022/11/11 09:35:52;;;;;;;;;;;14.40;99.90;;;;;;5021919;28;20396;-65
2022/11/11 09:38:18;;;;;;;;;;;14.30;99.90;;;;;;5028228;28;20399;-65
2022/11/11 09:40:43;;;;;;;;;;;14.40;99.90;;;;;;5022186;28;19913;-66
2022/11/11 09:43:09;;;;;;;;;;;14.30;99.90;;;;;;5026430;28;21200;-66
2022/11/11 09:46:00;;;;;;;;;;;14.20;99.90;;;;;;5029605;28;19914;-66
2022/11/11 09:48:38;;;;;;;;;;;14.30;99.90;;;;;;5028228;28;19968;-66
2022/11/11 09:51:05;;;;;;;;;;;14.20;99.90;;;;;;5028516;28;19971;-65
2022/11/11 09:53:38;;;;;;;;;;;14.20;99.90;;;;;;5027724;28;19921;-66
2022/11/11 09:56:10;;;;;;;;;;;14.30;99.90;;;;;;5024720;28;19920;-64
2022/11/11 09:58:37;;;;;;;;;;;14.20;99.90;;;;;;5025089;28;19921;-66
2022/11/11 10:01:06;;;;;;;;;;;14.20;99.90;;;;;;5029415;28;19976;-66
2022/11/11 10:03:34;;;;;;;;;;;14.20;99.90;;;;;;5026021;28;19921;-66
2022/11/11 10:06:02;;;;;;;;;;;14.30;99.90;;;;;;5025391;28;20323;-66
2022/11/11 10:08:30;;;;;;;;;;;14.30;99.90;;;;;;5025475;28;19913;-67
2022/11/11 10:10:58;;;;;;;;;;;14.30;99.90;;;;;;5023826;28;20400;-66
2022/11/11 10:13:34;;;;;;;;;;;14.40;99.90;;;;;;5019197;28;19967;-65
2022/11/11 10:16:06;;;;;;;;;;;14.60;99.90;;;;;;5024802;28;19917;-65
2022/11/11 10:18:58;;;;;;;;;;;14.60;99.90;;;;;;5029066;28;19940;-65
2022/11/11 10:21:31;;;;;;;;;;;14.70;99.90;;;;;;5017783;28;19928;-66
2022/11/11 10:23:59;;;;;;;;;;;14.70;99.90;;;;;;5026934;28;19913;-66
2022/11/11 10:26:28;;;;;;;;;;;14.60;99.90;;;;;;5026782;28;20007;-66
2022/11/11 10:28:54;;;;;;;;;;;14.60;99.90;;;;;;5026919;28;20039;-64
2022/11/11 10:31:21;;;;;;;;;;;14.60;99.90;;;;;;5028012;28;20362;-66
2022/11/11 10:34:02;;;;;;;;;;;14.60;99.90;;;;;;5026620;28;19992;-65
2022/11/11 10:36:29;;;;;;;;;;;14.50;99.90;;;;;;5025945;28;19924;-65
2022/11/11 10:38:58;;;;;;;;;;;14.40;99.90;;;;;;5026640;28;19928;-65
2022/11/11 10:41:29;;;;;;;;;;;14.40;99.90;;;;;;5021508;28;20305;-64
2022/11/11 10:43:55;;;;;;;;;;;14.40;99.90;;;;;;5026312;28;19921;-65
2022/11/11 10:46:27;;;;;;;;;;;14.40;99.90;;;;;;5027466;28;20322;-65
2022/11/11 10:48:52;;;;;;;;;;;14.40;99.90;;;;;;5019085;28;20487;-66
2022/11/11 10:51:18;;;;;;;;;;;14.40;99.90;;;;;;5025143;28;20000;-66
2022/11/11 10:53:56;;;;;;;;;;;14.50;99.90;;;;;;5020838;28;19913;-66
2022/11/11 10:56:31;;;;;;;;;;;14.50;99.90;;;;;;5022287;28;19921;-66
2022/11/11 10:59:00;;;;;;;;;;;14.50;99.90;;;;;;5018447;28;20099;-66
2022/11/11 11:01:29;;;;;;;;;;;14.60;99.90;;;;;;5021645;28;19922;-67
2022/11/11 11:03:57;;;;;;;;;;;14.60;99.90;;;;;;5021739;28;19995;-66
2022/11/11 11:06:23;;;;;;;;;;;14.60;99.90;;;;;;5021599;28;19926;-66
2022/11/11 11:08:51;;;;;;;;;;;14.60;99.90;;;;;;5022972;28;19921;-65
2022/11/11 11:11:17;;;;;;;;;;;14.60;99.90;;;;;;5022041;28;19913;-67
2022/11/11 11:13:44;;;;;;;;;;;14.60;99.90;;;;;;5014821;28;19921;-66
2022/11/11 11:16:23;;;;;;;;;;;14.70;99.90;;;;;;5021440;28;19913;-65
2022/11/11 11:19:07;;;;;;;;;;;14.70;99.90;;;;;;5020146;28;20009;-65
2022/11/11 11:21:51;;;;;;;;;;;14.70;99.90;;;;;;5023456;28;19917;-65
2022/11/11 11:24:18;;;;;;;;;;;14.80;99.90;;;;;;5019072;28;19927;-65
2022/11/11 11:26:45;;;;;;;;;;;14.80;99.90;;;;;;5019061;28;20456;-65
2022/11/11 11:29:11;;;;;;;;;;;14.90;99.90;;;;;;5025457;28;20383;-65
2022/11/11 11:31:38;;;;;;;;;;;15.00;99.90;;;;;;5030796;28;19913;-64
2022/11/11 11:34:04;;;;;;;;;;;15.00;99.90;;;;;;5020418;28;19948;-64
2022/11/11 11:36:29;;;;;;;;;;;15.10;99.90;;;;;;5026895;28;19971;-64
2022/11/11 11:38:55;;;;;;;;;;;15.10;99.90;;;;;;5026840;28;19921;-61
2022/11/11 11:41:35;;;;;;;;;;;15.00;99.90;;;;;;5018455;28;20000;-66
2022/11/11 11:44:01;;;;;;;;;;;15.10;99.90;;;;;;5022330;28;20024;-65
2022/11/11 11:46:36;;;;;;;;;;;15.20;99.90;;;;;;5021079;28;20348;-66
2022/11/11 11:49:20;;;;;;;;;;;15.30;99.90;;;;;;5023568;28;20431;-68
2022/11/11 11:51:51;;;;;;;;;;;15.30;99.90;;;;;;5022043;28;20265;-70
2022/11/11 11:54:17;;;;;;;;;;;15.50;99.90;;;;;;5025741;28;19928;-66
2022/11/11 11:56:51;;;;;;;;;;;15.60;99.90;;;;;;5020731;28;19927;-66
2022/11/11 11:59:21;;;;;;;;;;;15.70;99.90;;;;;;5024085;28;19936;-67
2022/11/11 12:01:50;;;;;;;;;;;16.10;99.90;;;;;;5019324;28;20585;-66
2022/11/11 12:04:22;;;;;;;;;;;16.90;99.90;;;;;;5024525;28;20039;-68
2022/11/11 12:06:47;;;;;;;;;;;17.30;99.90;;;;;;5018941;28;20391;-66
2022/11/11 12:09:22;;;;;;;;;;;17.50;99.90;;;;;;5028924;28;19913;-68
2022/11/11 12:12:04;;;;;;;;;;;17.50;99.90;;;;;;5024326;28;19927;-68
2022/11/11 12:15:05;;;;;;;;;;;17.40;99.90;;;;;;5018573;28;19917;-68
2022/11/11 12:17:56;;;;;;;;;;;17.20;99.90;;;;;;5000623;28;19922;-67
2022/11/11 12:20:44;;;;;;;;;;;17.20;99.90;;;;;;4979803;28;20696;-68
2022/11/11 12:23:22;;;;;;;;;;;17.10;99.90;;;;;;5003071;28;19913;-66
2022/11/11 12:25:50;;;;;;;;;;;17.40;99.90;;;;;;4999536;28;19976;-67
2022/11/11 12:28:34;;;;;;;;;;;17.30;99.90;;;;;;4993752;28;20060;-67
2022/11/11 12:31:26;;;;;;;;;;;17.10;99.90;;;;;;4999303;28;20364;-67
2022/11/11 12:34:04;;;;;;;;;;;16.60;99.90;;;;;;4998020;28;20349;-67
2022/11/11 12:36:42;;;;;;;;;;;16.40;99.90;;;;;;5001179;28;19929;-67
2022/11/11 12:39:35;;;;;;;;;;;16.40;99.90;;;;;;4999540;28;20357;-66
2022/11/11 12:42:15;;;;;;;;;;;16.50;99.90;;;;;;5000548;28;19917;-67
2022/11/11 12:44:59;;;;;;;;;;;16.20;99.90;;;;;;5000916;28;19949;-63
2022/11/11 12:47:44;;;;;;;;;;;16.20;99.90;;;;;;5004940;28;19964;-66
2022/11/11 12:50:10;;;;;;;;;;;16.70;99.90;;;;;;4986834;28;19913;-68
2022/11/11 12:52:54;;;;;;;;;;;16.60;99.90;;;;;;5021237;28;19935;-69
2022/11/11 12:55:29;;;;;;;;;;;16.50;99.90;;;;;;5025523;28;19932;-68
2022/11/11 12:58:02;;;;;;;;;;;16.30;99.90;;;;;;5021859;28;19933;-67
2022/11/11 13:00:28;;;;;;;;;;;16.10;99.90;;;;;;5021412;28;20345;-68
2022/11/11 13:03:00;;;;;;;;;;;16.00;99.90;;;;;;5022682;28;20012;-68
2022/11/11 13:05:40;;;;;;;;;;;15.70;99.90;;;;;;5020153;28;19917;-67
2022/11/11 13:08:06;;;;;;;;;;;15.70;99.90;;;;;;5018391;28;20340;-67
2022/11/11 13:10:50;;;;;;;;;;;15.80;99.90;;;;;;5023556;28;20000;-68
2022/11/11 13:13:35;;;;;;;;;;;15.80;99.90;;;;;;5023653;28;20831;-66
2022/11/11 13:16:01;;;;;;;;;;;15.50;99.90;;;;;;5021108;28;19917;-68
2022/11/11 13:18:45;;;;;;;;;;;15.40;99.90;;;;;;5022756;28;19932;-67
2022/11/11 13:21:16;;;;;;;;;;;15.30;99.90;;;;;;5023276;28;19913;-67
2022/11/11 13:23:42;;;;;;;;;;;15.30;99.90;;;;;;5022297;28;19921;-66
2022/11/11 13:26:22;;;;;;;;;;;15.20;99.90;;;;;;5025763;28;19920;-68
2022/11/11 13:28:48;;;;;;;;;;;15.20;99.90;;;;;;5022091;28;20456;-68
2022/11/11 13:31:18;;;;;;;;;;;15.20;99.90;;;;;;5024395;28;19921;-69
2022/11/11 13:33:49;;;;;;;;;;;15.40;99.90;;;;;;5019631;28;19979;-67
2022/11/11 13:36:16;;;;;;;;;;;15.30;99.90;;;;;;5024440;28;20021;-68
2022/11/11 13:38:46;;;;;;;;;;;15.10;99.90;;;;;;5018417;28;19921;-69
2022/11/11 13:41:12;;;;;;;;;;;15.10;99.90;;;;;;5023807;28;19913;-66
2022/11/11 13:43:41;;;;;;;;;;;15.10;99.90;;;;;;5021241;28;19924;-66
2022/11/11 13:46:11;;;;;;;;;;;15.00;99.90;;;;;;5022646;28;19936;-68
2022/11/11 13:48:46;;;;;;;;;;;15.00;99.90;;;;;;5019418;28;20296;-68
2022/11/11 13:51:19;;;;;;;;;;;15.00;99.90;;;;;;5023797;28;20430;-68
2022/11/11 13:53:46;;;;;;;;;;;15.00;99.90;;;;;;5022653;28;19920;-73
2022/11/11 13:56:11;;;;;;;;;;;15.00;99.90;;;;;;5019121;28;20442;-70
2022/11/11 13:58:39;;;;;;;;;;;15.00;99.90;;;;;;5024261;28;19930;-68
2022/11/11 14:01:07;;;;;;;;;;;15.00;99.90;;;;;;5028194;28;19919;-72
2022/11/11 14:03:55;;;;;;;;;;;15.00;99.90;;;;;;5024748;28;19967;-82
2022/11/11 14:06:27;;;;;;;;;;;14.90;99.90;;;;;;5022267;28;19936;-78
2022/11/11 14:08:53;;;;;;;;;;;14.90;99.90;;;;;;5022641;28;20005;-79
2022/11/11 14:11:24;;;;;;;;;;;15.00;99.90;;;;;;5021651;28;19952;-77
2022/11/11 14:13:54;;;;;;;;;;;14.90;99.90;;;;;;5017816;28;20011;-72
2022/11/11 14:16:34;;;;;;;;;;;14.80;99.90;;;;;;5022686;28;19936;-77
2022/11/11 14:19:12;;;;;;;;;;;14.80;99.90;;;;;;5021367;28;20006;-76
2022/11/11 14:21:46;;;;;;;;;;;14.80;99.90;;;;;;5022276;28;19913;-70
2022/11/11 14:24:22;;;;;;;;;;;14.80;99.90;;;;;;5014719;28;19953;-72
2022/11/11 14:27:01;;;;;;;;;;;14.90;99.90;;;;;;5020919;28;19913;-69
2022/11/11 14:29:33;;;;;;;;;;;14.90;99.90;;;;;;5025758;28;19913;-66
2022/11/11 14:32:07;;;;;;;;;;;14.80;99.90;;;;;;5020441;28;19917;-70
2022/11/11 14:34:33;;;;;;;;;;;14.80;99.90;;;;;;5019377;28;19936;-69
2022/11/11 14:37:03;;;;;;;;;;;14.90;99.90;;;;;;5020869;28;19917;-69
2022/11/11 14:39:37;;;;;;;;;;;14.90;99.90;;;;;;5019842;28;20380;-69
2022/11/11 14:42:03;;;;;;;;;;;14.80;99.90;;;;;;5016696;28;19994;-69
2022/11/11 14:44:32;;;;;;;;;;;14.70;99.90;;;;;;5024006;28;19913;-70
2022/11/11 14:47:06;;;;;;;;;;;14.60;99.90;;;;;;5017056;28;19918;-72
2022/11/11 14:49:41;;;;;;;;;;;14.50;99.90;;;;;;5025819;28;20234;-67
2022/11/11 14:52:24;;;;;;;;;;;14.40;99.90;;;;;;5022259;28;19967;-71
2022/11/11 14:54:50;;;;;;;;;;;14.40;99.90;;;;;;5015629;28;19959;-73
2022/11/11 14:57:21;;;;;;;;;;;14.30;99.90;;;;;;5023935;28;19913;-66
2022/11/11 14:59:46;;;;;;;;;;;14.30;99.90;;;;;;5018840;28;19925;-73
2022/11/11 15:02:22;;;;;;;;;;;14.30;99.90;;;;;;5024971;28;19913;-68
2022/11/11 15:04:48;;;;;;;;;;;14.20;99.90;;;;;;5024387;28;19913;-71
2022/11/11 15:07:18;;;;;;;;;;;14.20;99.90;;;;;;5020600;28;19913;-71
2022/11/11 15:09:55;;;;;;;;;;;14.30;99.90;;;;;;5025934;28;19917;-71
2022/11/11 15:25:32;;;;;;;3.50;1.10;;;14.10;99.90;;;;;;5084327;27;20568;-69
2022/11/11 15:55:25;;;;;;;3.83;1.08;;;13.90;99.90;;;;;;5069980;28;20424;-70
2022/11/11 15:57:51;;;;;;;3.10;1.38;;;13.70;99.90;;;;;;5065682;28;20600;-70
2022/11/11 16:00:23;;;;;;;3.00;1.45;;;13.80;99.90;;;;;;5057804;28;20103;-68
2022/11/11 16:02:50;;;;;;;4.47;1.60;;;13.70;99.90;;;;;;5049023;28;20037;-66
2022/11/11 16:05:27;;;;;;;2.88;1.02;;;13.70;99.90;;;;;;5058772;28;20715;-66
2022/11/11 16:07:55;;;;;;;4.57;1.50;;;13.60;99.90;;;;;;5068028;28;20440;-65
2022/11/11 16:10:34;;;;;;;3.67;1.35;;;13.50;99.90;;;;;;5068238;28;20039;-66
2022/11/11 16:13:35;;;;;;;4.38;1.90;;;13.50;99.90;;;;;;5071932;28;20415;-66
2022/11/11 16:16:07;;;;;;;6.57;1.80;;;13.50;99.90;;;;;;5049786;28;20028;-66
2022/11/11 16:18:37;;;;;;;;;;;13.60;99.90;;;;;;5056254;28;20052;-68
2022/11/11 16:21:07;;;;;;;3.63;2.00;;;13.60;99.90;;;;;;5054427;28;19912;-69
2022/11/11 16:23:34;;;;;;;6.18;2.58;;;13.50;99.90;;;;;;5060561;28;20142;-68